Shana Des Slops — FFZR — position and weather

sailwx.info

Track history (hours):
 
Tides and Currents Weather Stations Pressure Air Temp Water Temp Dewpoint Dewpoint Depression Visibility Wind Speed Wind Dir Waves Ship Positions

Shana Des Slops

Last reported at 2018-Apr-20 18:28 UTC. Time now 2018-Apr-20 18:40 UTC.
Position N 43°24' E 004°60'.

Length 47 m; draft 3.2 m.

Type: Ship. MMSI: 228003800.

Date/timePositionNaut miles runAvg speedWind from/ knotsBaromVisibWave heightAir tempDewpointWater temp
2018-Apr-20 18:28N 43°24' E 004°60'0 0.0
2018-Apr-20 17:58N 43°24' E 004°60'0 0.0
2018-Apr-20 17:28N 43°24' E 004°60'0 0.0
2018-Apr-20 16:58N 43°24' E 004°60'0 0.0
2018-Apr-20 16:28N 43°24' E 004°60'0 0.0
2018-Apr-20 15:58N 43°24' E 004°60'0 0.0
2018-Apr-20 15:28N 43°24' E 004°60'0 0.0
2018-Apr-20 14:52N 43°24' E 004°60'0 0.0
2018-Apr-20 14:28N 43°24' E 004°60'0 0.0
2018-Apr-20 13:58N 43°24' E 004°60'1 3.1
2018-Apr-20 13:30N 43°23' E 004°58'4 8.2
2018-Apr-20 13:00N 43°25' E 004°53'1 1.2
2018-Apr-20 12:30N 43°25' E 004°52'0 0.0
2018-Apr-20 12:00N 43°25' E 004°52'0 0.0
2018-Apr-20 11:30N 43°25' E 004°52'0 0.0
2018-Apr-20 11:01N 43°25' E 004°52'0 0.0
2018-Apr-20 10:30N 43°25' E 004°52'0 0.0
2018-Apr-20 10:00N 43°25' E 004°52'0 0.0
2018-Apr-20 09:27N 43°25' E 004°52'0 0.0
2018-Apr-20 09:00N 43°25' E 004°52'1 2.4
2018-Apr-20 08:30N 43°25' E 004°51'1 0.2
2018-Apr-20 06:11N 43°25' E 004°50'1 7.5
2018-Apr-20 06:01N 43°24' E 004°52'4 8.4
2018-Apr-20 05:30N 43°24' E 004°57'2 3.2
2018-Apr-20 04:55N 43°24' E 004°60'0 0.0
2018-Apr-20 04:25N 43°24' E 004°60'0 0.0
2018-Apr-20 03:55N 43°24' E 004°60'0 0.0
2018-Apr-20 03:13N 43°24' E 004°60'0 0.0
2018-Apr-20 02:55N 43°24' E 004°60'0 0.0
2018-Apr-20 02:25N 43°24' E 004°60'0 0.0
2018-Apr-20 01:55N 43°24' E 004°60'0 0.0
2018-Apr-20 01:25N 43°24' E 004°60'0 0.0
2018-Apr-20 00:55N 43°24' E 004°60'0 0.0
2018-Apr-20 00:28N 43°24' E 004°60'0 0.0
2018-Apr-19 23:57N 43°24' E 004°60'0 0.0
2018-Apr-19 23:27N 43°24' E 004°60'0 0.0
2018-Apr-19 22:57N 43°24' E 004°60'0 0.0
2018-Apr-19 22:27N 43°24' E 004°60'0 0.0
2018-Apr-19 21:57N 43°24' E 004°60'0 0.0
2018-Apr-19 21:27N 43°24' E 004°60'0 0.0
2018-Apr-19 20:57N 43°24' E 004°60'0 0.0
2018-Apr-19 20:27N 43°24' E 004°60'0 0.0
2018-Apr-19 19:57N 43°24' E 004°60'0 0.0
2018-Apr-19 19:27N 43°24' E 004°60'0 0.0
2018-Apr-19 18:58N 43°24' E 004°60'0 0.0
2018-Apr-19 18:28N 43°24' E 004°60'0 0.0
2018-Apr-19 17:58N 43°24' E 004°60'0 0.0
2018-Apr-19 17:28N 43°24' E 004°60'0 0.0
2018-Apr-19 16:58N 43°24' E 004°60'0 0.0
2018-Apr-19 16:28N 43°24' E 004°60'0 0.0
2018-Apr-19 15:58N 43°24' E 004°60'0 0.0
2018-Apr-19 15:28N 43°24' E 004°60'0 0.0
2018-Apr-19 14:58N 43°24' E 004°60'0 0.0
2018-Apr-19 14:28N 43°24' E 004°60'0 0.0
2018-Apr-19 13:52N 43°24' E 004°60'0 0.0
2018-Apr-19 13:28N 43°24' E 004°60'0 0.0
2018-Apr-19 12:58N 43°24' E 004°60'0 0.0
2018-Apr-19 12:28N 43°24' E 004°60'0 0.0
2018-Apr-19 11:58N 43°24' E 004°60'0 0.0
2018-Apr-19 11:28N 43°24' E 004°60'0 0.0
2018-Apr-19 10:58N 43°24' E 004°60'0 0.0
2018-Apr-19 10:28N 43°24' E 004°60'0 0.0
2018-Apr-19 09:58N 43°24' E 004°60'0 0.0
2018-Apr-19 09:28N 43°24' E 004°60'0 0.0
2018-Apr-19 08:58N 43°24' E 004°60'0 0.0
2018-Apr-19 08:28N 43°24' E 004°60'0 0.0
2018-Apr-19 07:58N 43°24' E 004°60'0 0.0
2018-Apr-19 07:28N 43°24' E 004°60'0 0.0
2018-Apr-19 06:58N 43°24' E 004°60'0 0.0
2018-Apr-19 06:28N 43°24' E 004°60'0 0.0
2018-Apr-19 05:58N 43°24' E 004°60'0 0.0
2018-Apr-19 05:28N 43°24' E 004°60'0 0.0
2018-Apr-19 04:58N 43°24' E 004°60'0 0.0
2018-Apr-19 04:22N 43°24' E 004°60'0 0.0
2018-Apr-19 03:58N 43°24' E 004°60'0 0.0
2018-Apr-19 03:28N 43°24' E 004°60'0 0.0
2018-Apr-19 02:58N 43°24' E 004°60'0 0.0
2018-Apr-19 02:28N 43°24' E 004°60'0 0.0
2018-Apr-19 01:58N 43°24' E 004°60'0 0.0
2018-Apr-19 01:22N 43°24' E 004°60'0 0.0
2018-Apr-19 00:58N 43°24' E 004°60'0 0.0
2018-Apr-19 00:28N 43°24' E 004°60'0 0.0
2018-Apr-18 23:58N 43°24' E 004°60'0 0.0
2018-Apr-18 23:30N 43°24' E 004°60'0 0.0
2018-Apr-18 23:00N 43°24' E 004°60'0 0.0
2018-Apr-18 22:24N 43°24' E 004°60'0 0.0
2018-Apr-18 22:00N 43°24' E 004°60'0 0.0
2018-Apr-18 21:12N 43°24' E 004°60'0 0.0
2018-Apr-18 21:00N 43°24' E 004°60'0 0.0
2018-Apr-18 20:30N 43°24' E 004°60'0 0.0
2018-Apr-18 20:00N 43°24' E 004°60'0 0.0
2018-Apr-18 19:30N 43°24' E 004°60'0 0.0
2018-Apr-18 19:00N 43°24' E 004°60'0 0.0
2018-Apr-18 18:30N 43°24' E 004°60'0 0.0
2018-Apr-18 18:00N 43°24' E 004°60'0 0.0
2018-Apr-18 17:30N 43°24' E 004°60'0 0.0
2018-Apr-18 17:00N 43°24' E 004°60'0 0.0
2018-Apr-18 16:24N 43°24' E 004°60'0 0.0
2018-Apr-18 15:55N 43°24' E 004°60'0 0.0
2018-Apr-18 15:25N 43°24' E 004°60'0 0.0
2018-Apr-18 14:55N 43°24' E 004°60'0 0.0
2018-Apr-18 14:25N 43°24' E 004°60'0 0.0
2018-Apr-18 13:55N 43°24' E 004°60'0 0.0
2018-Apr-18 13:25N 43°24' E 004°60'2 3.8
2018-Apr-18 13:00N 43°23' E 004°59'1 1.9
2018-Apr-18 12:30N 43°22' E 004°59'0 0.0
2018-Apr-18 12:00N 43°22' E 004°59'0 0.0
2018-Apr-18 11:28N 43°22' E 004°59'0 0.0
2018-Apr-18 11:00N 43°22' E 004°59'0 0.0
2018-Apr-18 10:30N 43°22' E 004°59'0 0.0
2018-Apr-18 10:00N 43°22' E 004°59'0 0.0
2018-Apr-18 09:30N 43°22' E 004°59'0 0.0
2018-Apr-18 09:00N 43°22' E 004°59'0 0.0
2018-Apr-18 08:30N 43°22' E 004°59'0 0.0
2018-Apr-18 08:00N 43°22' E 004°59'0 0.1
2018-Apr-18 07:29N 43°22' E 004°59'0 0.0
2018-Apr-18 07:00N 43°22' E 004°59'2 3.0
2018-Apr-18 06:30N 43°23' E 004°59'1 1.8
2018-Apr-18 05:54N 43°24' E 004°60'0 0.0
2018-Apr-18 05:30N 43°24' E 004°60'0 0.0
2018-Apr-18 04:58N 43°24' E 004°60'0 0.0
2018-Apr-18 04:28N 43°24' E 004°60'0 0.0
2018-Apr-18 03:58N 43°24' E 004°60'0 0.0
2018-Apr-18 03:28N 43°24' E 004°60'0 0.0
2018-Apr-18 02:58N 43°24' E 004°60'0 0.0
2018-Apr-18 02:28N 43°24' E 004°60'0 0.0
2018-Apr-18 01:58N 43°24' E 004°60'0 0.0
2018-Apr-18 01:28N 43°24' E 004°60'0 0.0
2018-Apr-18 00:58N 43°24' E 004°60'0 0.0
2018-Apr-18 00:28N 43°24' E 004°60'0 0.0
2018-Apr-17 23:58N 43°24' E 004°60'0 0.0
2018-Apr-17 23:28N 43°24' E 004°60'0 0.0
2018-Apr-17 22:58N 43°24' E 004°60'0 0.0
2018-Apr-17 22:28N 43°24' E 004°60'0 0.0
2018-Apr-17 21:58N 43°24' E 004°60'0 0.0
2018-Apr-17 21:28N 43°24' E 004°60'0 0.0
2018-Apr-17 20:58N 43°24' E 004°60'0 0.0
2018-Apr-17 20:26N 43°24' E 004°60'0 0.0
2018-Apr-17 19:56N 43°24' E 004°60'0 0.0
2018-Apr-17 19:26N 43°24' E 004°60'0 0.0
2018-Apr-17 18:56N 43°24' E 004°60'2 4.6
2018-Apr-17 18:31N 43°24' E 004°57'4 7.8
2018-Apr-17 18:00N 43°24' E 004°52'2 3.8
2018-Apr-17 17:30N 43°26' E 004°50'0 0.0
2018-Apr-17 16:58N 43°26' E 004°50'0 0.0
2018-Apr-17 16:25N 43°26' E 004°50'0 0.0
2018-Apr-17 15:55N 43°26' E 004°50'0 0.0
2018-Apr-17 15:30N 43°26' E 004°50'0 0.0
2018-Apr-17 14:55N 43°26' E 004°50'0 0.0
2018-Apr-17 14:26N 43°26' E 004°50'0 0.0
2018-Apr-17 14:00N 43°26' E 004°50'0 0.0
2018-Apr-17 13:29N 43°26' E 004°50'0 0.0
2018-Apr-17 12:56N 43°26' E 004°50'0 0.0
2018-Apr-17 12:30N 43°26' E 004°50'0 0.0
2018-Apr-17 11:53N 43°26' E 004°50'0 0.0
2018-Apr-17 11:30N 43°26' E 004°50'0 0.3
2018-Apr-17 10:54N 43°25' E 004°50'3 7.3
2018-Apr-17 10:29N 43°24' E 004°54'3 6.1
2018-Apr-17 10:00N 43°23' E 004°58'0 0.0
2018-Apr-17 09:30N 43°23' E 004°58'0 0.0
2018-Apr-17 09:00N 43°23' E 004°58'0 0.0
2018-Apr-17 08:30N 43°23' E 004°58'0 0.0
2018-Apr-17 08:00N 43°23' E 004°58'0 0.0
2018-Apr-17 07:30N 43°23' E 004°58'0 0.0
2018-Apr-17 07:00N 43°23' E 004°58'0 0.0
2018-Apr-17 06:30N 43°23' E 004°58'2 3.6
2018-Apr-17 06:01N 43°24' E 004°60'0 0.0
2018-Apr-17 05:25N 43°24' E 004°60'0 0.0
2018-Apr-17 04:55N 43°24' E 004°60'0 0.0
2018-Apr-17 04:25N 43°24' E 004°60'0 0.0
2018-Apr-17 03:55N 43°24' E 004°60'0 0.0
2018-Apr-17 03:25N 43°24' E 004°60'0 0.0
2018-Apr-17 02:55N 43°24' E 004°60'0 0.0
2018-Apr-17 02:25N 43°24' E 004°60'0 0.0
2018-Apr-17 01:55N 43°24' E 004°60'0 0.0
2018-Apr-17 01:25N 43°24' E 004°60'0 0.0
2018-Apr-17 00:58N 43°24' E 004°60'0 0.0
2018-Apr-17 00:28N 43°24' E 004°60'0 0.0
2018-Apr-16 23:58N 43°24' E 004°60'0 0.0
2018-Apr-16 23:30N 43°24' E 004°60'0 0.0
2018-Apr-16 23:00N 43°24' E 004°60'0 0.0
2018-Apr-16 22:30N 43°24' E 004°60'0 0.0
2018-Apr-16 22:00N 43°24' E 004°60'0 0.0
2018-Apr-16 21:30N 43°24' E 004°60'0 0.0
2018-Apr-16 21:00N 43°24' E 004°60'0 0.0
2018-Apr-16 20:30N 43°24' E 004°60'0 0.0
2018-Apr-16 20:00N 43°24' E 004°60'0 0.0
2018-Apr-16 19:30N 43°24' E 004°60'0 0.0
2018-Apr-16 19:00N 43°24' E 004°60'0 0.0
2018-Apr-16 18:30N 43°24' E 004°60'0 0.4
2018-Apr-16 18:01N 43°24' E 004°60'1 2.3
2018-Apr-16 17:31N 43°24' E 004°58'0 0.0
2018-Apr-16 17:01N 43°24' E 004°58'0 0.1
2018-Apr-16 16:30N 43°24' E 004°58'0 0.0
2018-Apr-16 16:00N 43°24' E 004°58'0 0.0
2018-Apr-16 15:31N 43°24' E 004°58'0 0.0
2018-Apr-16 15:00N 43°24' E 004°58'0 0.3
2018-Apr-16 14:31N 43°24' E 004°58'1 2.9
2018-Apr-16 14:00N 43°24' E 004°60'0 0.0
2018-Apr-16 13:30N 43°24' E 004°60'0 0.0
2018-Apr-16 12:58N 43°24' E 004°60'0 0.0
2018-Apr-16 12:22N 43°24' E 004°60'1 2.7
2018-Apr-16 12:00N 43°24' E 004°59'2 4.7
2018-Apr-16 11:30N 43°24' E 004°56'0 0.0
2018-Apr-16 11:00N 43°24' E 004°56'2 3.6
2018-Apr-16 10:30N 43°24' E 004°53'0 0.0
2018-Apr-16 10:00N 43°24' E 004°53'0 0.0
2018-Apr-16 09:29N 43°24' E 004°53'0 0.0
2018-Apr-16 08:59N 43°24' E 004°53'0 0.0
2018-Apr-16 08:29N 43°24' E 004°53'0 0.0
2018-Apr-16 08:00N 43°24' E 004°53'0 0.0
2018-Apr-16 07:30N 43°24' E 004°53'0 0.0
2018-Apr-16 06:38N 43°24' E 004°53'0 0.0
2018-Apr-16 06:25N 43°24' E 004°53'0 0.0
2018-Apr-16 05:59N 43°24' E 004°53'0 0.0
2018-Apr-16 05:26N 43°24' E 004°53'0 0.1
2018-Apr-16 04:56N 43°24' E 004°53'3 7.4
2018-Apr-16 04:30N 43°24' E 004°58'2 3.4
2018-Apr-16 04:00N 43°24' E 004°60'0 0.0
2018-Apr-16 03:28N 43°24' E 004°60'0 0.0
2018-Apr-16 02:58N 43°24' E 004°60'0 0.0
2018-Apr-16 02:28N 43°24' E 004°60'0 0.0
2018-Apr-16 01:58N 43°24' E 004°60'0 0.0
2018-Apr-16 01:28N 43°24' E 004°60'0 0.0
2018-Apr-16 00:58N 43°24' E 004°60'0 0.0
2018-Apr-16 00:28N 43°24' E 004°60'0 0.0
2018-Apr-15 23:58N 43°24' E 004°60'0 0.0
2018-Apr-15 23:28N 43°24' E 004°60'0 0.0
2018-Apr-15 22:58N 43°24' E 004°60'0 0.0
2018-Apr-15 22:28N 43°24' E 004°60'0 0.0
2018-Apr-15 21:58N 43°24' E 004°60'0 0.0
2018-Apr-15 21:28N 43°24' E 004°60'0 0.0
2018-Apr-15 20:58N 43°24' E 004°60'0 0.0
2018-Apr-15 20:28N 43°24' E 004°60'0 0.0
2018-Apr-15 19:58N 43°24' E 004°60'0 0.0
2018-Apr-15 19:28N 43°24' E 004°60'0 0.0
2018-Apr-15 18:58N 43°24' E 004°60'0 0.0
2018-Apr-15 18:28N 43°24' E 004°60'0 0.0
2018-Apr-15 17:58N 43°24' E 004°60'0 0.0
2018-Apr-15 17:28N 43°24' E 004°60'0 0.0
2018-Apr-15 16:58N 43°24' E 004°60'0 0.0
2018-Apr-15 16:28N 43°24' E 004°60'0 0.0
2018-Apr-15 15:58N 43°24' E 004°60'0 0.0
2018-Apr-15 15:28N 43°24' E 004°60'0 0.0
2018-Apr-15 14:58N 43°24' E 004°60'0 0.0
2018-Apr-15 14:28N 43°24' E 004°60'0 0.0
2018-Apr-15 13:58N 43°24' E 004°60'0 0.0
2018-Apr-15 13:28N 43°24' E 004°60'0 0.0
2018-Apr-15 12:58N 43°24' E 004°60'0 0.0
2018-Apr-15 12:28N 43°24' E 004°60'0 0.0
2018-Apr-15 11:58N 43°24' E 004°60'0 0.0
2018-Apr-15 11:28N 43°24' E 004°60'0 0.0
2018-Apr-15 10:58N 43°24' E 004°60'0 0.0
2018-Apr-15 10:28N 43°24' E 004°60'0 0.0
2018-Apr-15 09:56N 43°24' E 004°60'0 0.0
2018-Apr-15 09:20N 43°24' E 004°60'0 0.0
2018-Apr-15 08:56N 43°24' E 004°60'0 0.0
2018-Apr-15 08:26N 43°24' E 004°60'0 0.0
2018-Apr-15 07:56N 43°24' E 004°60'0 0.0
2018-Apr-15 07:26N 43°24' E 004°60'0 0.0
2018-Apr-15 06:55N 43°24' E 004°60'0 0.0
2018-Apr-15 06:25N 43°24' E 004°60'0 0.0
2018-Apr-15 05:55N 43°24' E 004°60'0 0.0
2018-Apr-15 05:01N 43°24' E 004°60'0 0.0
2018-Apr-15 04:55N 43°24' E 004°60'0 0.0
2018-Apr-15 04:17N 43°24' E 004°60'0 0.0
2018-Apr-15 03:53N 43°24' E 004°60'0 0.0
2018-Apr-15 03:23N 43°24' E 004°60'0 0.0
2018-Apr-15 02:59N 43°24' E 004°60'0 0.0
2018-Apr-15 02:29N 43°24' E 004°60'0 0.0
2018-Apr-15 01:59N 43°24' E 004°60'0 0.0
2018-Apr-15 01:29N 43°24' E 004°60'0 0.0
2018-Apr-15 00:59N 43°24' E 004°60'0 0.0
2018-Apr-15 00:27N 43°24' E 004°60'0 0.0
2018-Apr-14 23:57N 43°24' E 004°60'0 0.0
2018-Apr-14 23:24N 43°24' E 004°60'0 0.0
2018-Apr-14 23:00N 43°24' E 004°60'0 0.0
2018-Apr-14 22:30N 43°24' E 004°60'0 0.0
2018-Apr-14 22:00N 43°24' E 004°60'0 0.0
2018-Apr-14 21:30N 43°24' E 004°60'0 0.0
2018-Apr-14 21:00N 43°24' E 004°60'0 0.0
2018-Apr-14 20:30N 43°24' E 004°60'0 0.0
2018-Apr-14 19:56N 43°24' E 004°60'0 0.0
2018-Apr-14 19:26N 43°24' E 004°60'0 0.0
2018-Apr-14 18:56N 43°24' E 004°60'0 0.0
2018-Apr-14 18:20N 43°24' E 004°60'0 0.0
2018-Apr-14 17:56N 43°24' E 004°60'0 0.0
2018-Apr-14 17:26N 43°24' E 004°60'0 0.0
2018-Apr-14 16:56N 43°24' E 004°60'0 0.0
2018-Apr-14 16:30N 43°24' E 004°60'0 0.0
2018-Apr-14 16:00N 43°24' E 004°60'0 0.0
2018-Apr-14 15:30N 43°24' E 004°60'0 0.0
2018-Apr-14 14:54N 43°24' E 004°60'0 0.0
2018-Apr-14 14:30N 43°24' E 004°60'0 0.0
2018-Apr-14 14:00N 43°24' E 004°60'0 0.9
2018-Apr-14 13:30N 43°24' E 004°60'0 0.0
2018-Apr-14 13:00N 43°24' E 004°60'0 0.0
2018-Apr-14 12:30N 43°24' E 004°60'0 0.0
2018-Apr-14 12:00N 43°24' E 004°60'0 0.0
2018-Apr-14 11:30N 43°24' E 004°60'0 0.0
2018-Apr-14 11:00N 43°24' E 004°60'0 0.0
2018-Apr-14 10:29N 43°24' E 004°60'0 0.0
2018-Apr-14 10:00N 43°24' E 004°60'0 0.9
2018-Apr-14 09:30N 43°24' E 004°60'0 0.0
2018-Apr-14 09:00N 43°24' E 004°60'0 0.0
2018-Apr-14 08:30N 43°24' E 004°60'0 0.0
2018-Apr-14 08:00N 43°24' E 004°60'0 0.0
2018-Apr-14 07:30N 43°24' E 004°60'0 0.0
2018-Apr-14 07:00N 43°24' E 004°60'0 0.0
2018-Apr-14 06:30N 43°24' E 004°60'0 0.0
2018-Apr-14 06:00N 43°24' E 004°60'0 0.0
2018-Apr-14 05:30N 43°24' E 004°60'0 0.0
2018-Apr-14 04:48N 43°24' E 004°60'0 0.0
2018-Apr-14 04:30N 43°24' E 004°60'0 0.0
2018-Apr-14 04:00N 43°24' E 004°60'0 0.0
2018-Apr-14 03:18N 43°24' E 004°60'0 0.0
2018-Apr-14 03:00N 43°24' E 004°60'0 0.0
2018-Apr-14 02:30N 43°24' E 004°60'0 0.0
2018-Apr-14 01:54N 43°24' E 004°60'0 0.0
2018-Apr-14 01:30N 43°24' E 004°60'0 0.0
2018-Apr-14 01:00N 43°24' E 004°60'0 0.0
2018-Apr-14 00:30N 43°24' E 004°60'0 0.0
2018-Apr-14 00:00N 43°24' E 004°60'0 0.0
2018-Apr-13 23:25N 43°24' E 004°60'0 0.0
2018-Apr-13 22:55N 43°24' E 004°60'0 0.0
2018-Apr-13 22:25N 43°24' E 004°60'0 0.0
2018-Apr-13 21:55N 43°24' E 004°60'0 0.0
2018-Apr-13 21:25N 43°24' E 004°60'0 0.0
2018-Apr-13 20:55N 43°24' E 004°60'0 0.0
2018-Apr-13 20:25N 43°24' E 004°60'0 0.0
2018-Apr-13 19:55N 43°24' E 004°60'0 0.0
2018-Apr-13 19:25N 43°24' E 004°60'0 0.0
2018-Apr-13 18:49N 43°24' E 004°60'0 0.0
2018-Apr-13 18:25N 43°24' E 004°60'0 0.0
2018-Apr-13 17:55N 43°24' E 004°60'0 0.0
2018-Apr-13 17:25N 43°24' E 004°60'0 0.0
2018-Apr-13 16:55N 43°24' E 004°60'0 0.0
2018-Apr-13 16:25N 43°24' E 004°60'0 0.0
2018-Apr-13 15:55N 43°24' E 004°60'0 0.0
2018-Apr-13 15:25N 43°24' E 004°60'0 0.0
2018-Apr-13 14:43N 43°24' E 004°60'3 4.5
2018-Apr-13 14:00N 43°24' E 004°56'2 2.3
2018-Apr-13 13:00N 43°26' E 004°54'0 0.0
2018-Apr-13 12:30N 43°26' E 004°54'0 0.0
2018-Apr-13 12:00N 43°26' E 004°54'0 0.4
2018-Apr-13 11:30N 43°26' E 004°53'3 6.5
2018-Apr-13 11:00N 43°24' E 004°57'2 4.5
2018-Apr-13 10:30N 43°24' E 004°60'0 0.0
2018-Apr-13 09:59N 43°24' E 004°60'0 0.0
2018-Apr-13 09:29N 43°24' E 004°60'0 0.0
2018-Apr-13 08:59N 43°24' E 004°60'0 0.0
2018-Apr-13 08:29N 43°24' E 004°60'0 0.0
2018-Apr-13 07:59N 43°24' E 004°60'0 0.0
2018-Apr-13 07:29N 43°24' E 004°60'0 0.0
2018-Apr-13 06:59N 43°24' E 004°60'0 0.0
2018-Apr-13 06:29N 43°24' E 004°60'0 0.0
2018-Apr-13 05:59N 43°24' E 004°60'0 0.0
2018-Apr-13 05:29N 43°24' E 004°60'0 0.0
2018-Apr-13 04:59N 43°24' E 004°60'0 0.0
2018-Apr-13 04:23N 43°24' E 004°60'0 0.0
2018-Apr-13 03:59N 43°24' E 004°60'0 0.0
2018-Apr-13 03:29N 43°24' E 004°60'0 0.0
2018-Apr-13 02:59N 43°24' E 004°60'0 0.0
2018-Apr-13 02:29N 43°24' E 004°60'0 0.0
2018-Apr-13 01:59N 43°24' E 004°60'0 0.0
2018-Apr-13 01:29N 43°24' E 004°60'0 0.0
2018-Apr-13 00:59N 43°24' E 004°60'0 0.0
2018-Apr-13 00:29N 43°24' E 004°60'0 0.0
2018-Apr-12 23:59N 43°24' E 004°60'0 0.0
2018-Apr-12 23:29N 43°24' E 004°60'0 0.0
2018-Apr-12 22:59N 43°24' E 004°60'0 0.0
2018-Apr-12 22:29N 43°24' E 004°60'0 0.0
2018-Apr-12 21:59N 43°24' E 004°60'0 0.0
2018-Apr-12 21:29N 43°24' E 004°60'0 0.0
2018-Apr-12 20:59N 43°24' E 004°60'0 0.0
2018-Apr-12 20:29N 43°24' E 004°60'0 0.0
2018-Apr-12 19:59N 43°24' E 004°60'0 0.0
2018-Apr-12 19:29N 43°24' E 004°60'0 0.0
2018-Apr-12 18:59N 43°24' E 004°60'0 0.0
2018-Apr-12 18:29N 43°24' E 004°60'0 0.0
2018-Apr-12 17:59N 43°24' E 004°60'0 0.0
2018-Apr-12 17:29N 43°24' E 004°60'0 0.0
2018-Apr-12 16:59N 43°24' E 004°60'0 0.0
2018-Apr-12 16:29N 43°24' E 004°60'1 1.8
2018-Apr-12 16:00N 43°24' E 004°59'4 7.2
2018-Apr-12 15:31N 43°24' E 004°54'2 0.2
2018-Apr-12 06:47N 43°26' E 004°52'0 0.1
2018-Apr-12 06:20N 43°26' E 004°52'2 6.3
2018-Apr-12 05:59N 43°24' E 004°55'3 6.7
2018-Apr-12 05:30N 43°24' E 004°59'1 1.8
2018-Apr-12 04:59N 43°24' E 004°60'0 0.0
2018-Apr-12 04:28N 43°24' E 004°60'0 0.0
2018-Apr-12 03:58N 43°24' E 004°60'0 0.0
2018-Apr-12 03:29N 43°24' E 004°60'0 0.0
2018-Apr-12 02:58N 43°24' E 004°60'0 0.0
2018-Apr-12 02:28N 43°24' E 004°60'0 0.0
2018-Apr-12 01:58N 43°24' E 004°60'0 0.0
2018-Apr-12 01:28N 43°24' E 004°60'0 0.0
2018-Apr-12 00:59N 43°24' E 004°60'0 0.0
2018-Apr-12 00:29N 43°24' E 004°60'0 0.0
2018-Apr-12 00:00N 43°24' E 004°60'0 0.0
2018-Apr-11 23:30N 43°24' E 004°60'0 0.0
2018-Apr-11 22:55N 43°24' E 004°60'0 0.0
2018-Apr-11 22:25N 43°24' E 004°60'0 0.0
2018-Apr-11 21:55N 43°24' E 004°60'0 0.0
2018-Apr-11 21:25N 43°24' E 004°60'0 0.0
2018-Apr-11 20:55N 43°24' E 004°60'0 0.0
2018-Apr-11 20:25N 43°24' E 004°60'0 0.0
2018-Apr-11 19:49N 43°24' E 004°60'0 0.0
2018-Apr-11 19:25N 43°24' E 004°60'0 0.0
2018-Apr-11 18:55N 43°24' E 004°60'0 0.0
2018-Apr-11 18:19N 43°24' E 004°60'0 0.0
2018-Apr-11 17:55N 43°24' E 004°60'0 0.0
2018-Apr-11 17:25N 43°24' E 004°60'0 0.0
2018-Apr-11 16:55N 43°24' E 004°60'0 0.0
2018-Apr-11 16:25N 43°24' E 004°60'0 0.0
2018-Apr-11 15:55N 43°24' E 004°60'0 0.0
2018-Apr-11 15:25N 43°24' E 004°60'0 0.0
2018-Apr-11 14:55N 43°24' E 004°60'0 0.0
2018-Apr-11 14:25N 43°24' E 004°60'0 0.0
2018-Apr-11 13:55N 43°24' E 004°60'0 0.0
2018-Apr-11 13:19N 43°24' E 004°60'0 0.0
2018-Apr-11 12:55N 43°24' E 004°60'0 0.0
2018-Apr-11 12:25N 43°24' E 004°60'0 0.0
2018-Apr-11 11:55N 43°24' E 004°60'0 0.0
2018-Apr-11 11:25N 43°24' E 004°60'0 0.0
2018-Apr-11 10:55N 43°24' E 004°60'0 0.0
2018-Apr-11 10:25N 43°24' E 004°60'0 0.0
2018-Apr-11 09:55N 43°24' E 004°60'0 0.0
2018-Apr-11 09:19N 43°24' E 004°60'0 0.0
2018-Apr-11 08:55N 43°24' E 004°60'0 0.0
2018-Apr-11 08:19N 43°24' E 004°60'0 0.0
2018-Apr-11 07:55N 43°24' E 004°60'0 0.0
2018-Apr-11 07:25N 43°24' E 004°60'0 0.0
2018-Apr-11 06:43N 43°24' E 004°60'0 0.0
2018-Apr-11 06:25N 43°24' E 004°60'0 0.0
2018-Apr-11 05:55N 43°24' E 004°60'0 0.0
2018-Apr-11 05:13N 43°24' E 004°60'0 0.0
2018-Apr-11 04:55N 43°24' E 004°60'0 0.0
2018-Apr-11 04:25N 43°24' E 004°60'0 0.0
2018-Apr-11 03:55N 43°24' E 004°60'0 0.0
2018-Apr-11 03:25N 43°24' E 004°60'0 0.0
2018-Apr-11 02:55N 43°24' E 004°60'0 0.0
2018-Apr-11 02:25N 43°24' E 004°60'0 0.0
2018-Apr-11 01:55N 43°24' E 004°60'0 0.0
2018-Apr-11 01:21N 43°24' E 004°60'0 0.0
2018-Apr-11 00:55N 43°24' E 004°60'0 0.0
2018-Apr-11 00:25N 43°24' E 004°60'0 0.0
2018-Apr-10 23:55N 43°24' E 004°60'0 0.0
2018-Apr-10 23:25N 43°24' E 004°60'0 0.0
2018-Apr-10 22:55N 43°24' E 004°60'0 0.0
2018-Apr-10 22:25N 43°24' E 004°60'0 0.0
2018-Apr-10 21:55N 43°24' E 004°60'0 0.0
2018-Apr-10 21:25N 43°24' E 004°60'0 0.0
2018-Apr-10 20:59N 43°24' E 004°60'0 0.0
2018-Apr-10 20:23N 43°24' E 004°60'0 0.0
2018-Apr-10 19:59N 43°24' E 004°60'0 0.0
2018-Apr-10 19:29N 43°24' E 004°60'0 0.0
2018-Apr-10 18:59N 43°24' E 004°60'0 0.0
2018-Apr-10 18:29N 43°24' E 004°60'  
Track history (hours):
 
Tides and Currents Weather Stations Pressure Air Temp Water Temp Dewpoint Dewpoint Depression Visibility Wind Speed Wind Dir Waves Ship Positions

Shana Des Slops

Last reported at 2018-Apr-20 18:28 UTC. Time now 2018-Apr-20 18:40 UTC.
Position N 43°24' E 004°60'.

Length 47 m; draft 3.2 m.

Type: Ship. MMSI: 228003800.

Date/timePositionNaut miles runAvg speedWind from/ knotsBaromVisibWave heightAir tempDewpointWater temp
2018-Apr-20 18:28N 43°24' E 004°60'0 0.0
2018-Apr-20 17:58N 43°24' E 004°60'0 0.0
2018-Apr-20 17:28N 43°24' E 004°60'0 0.0
2018-Apr-20 16:58N 43°24' E 004°60'0 0.0
2018-Apr-20 16:28N 43°24' E 004°60'0 0.0
2018-Apr-20 15:58N 43°24' E 004°60'0 0.0
2018-Apr-20 15:28N 43°24' E 004°60'0 0.0
2018-Apr-20 14:52N 43°24' E 004°60'0 0.0
2018-Apr-20 14:28N 43°24' E 004°60'0 0.0
2018-Apr-20 13:58N 43°24' E 004°60'1 3.1
2018-Apr-20 13:30N 43°23' E 004°58'4 8.2
2018-Apr-20 13:00N 43°25' E 004°53'1 1.2
2018-Apr-20 12:30N 43°25' E 004°52'0 0.0
2018-Apr-20 12:00N 43°25' E 004°52'0 0.0
2018-Apr-20 11:30N 43°25' E 004°52'0 0.0
2018-Apr-20 11:01N 43°25' E 004°52'0 0.0
2018-Apr-20 10:30N 43°25' E 004°52'0 0.0
2018-Apr-20 10:00N 43°25' E 004°52'0 0.0
2018-Apr-20 09:27N 43°25' E 004°52'0 0.0
2018-Apr-20 09:00N 43°25' E 004°52'1 2.4
2018-Apr-20 08:30N 43°25' E 004°51'1 0.2
2018-Apr-20 06:11N 43°25' E 004°50'1 7.5
2018-Apr-20 06:01N 43°24' E 004°52'4 8.4
2018-Apr-20 05:30N 43°24' E 004°57'2 3.2
2018-Apr-20 04:55N 43°24' E 004°60'0 0.0
2018-Apr-20 04:25N 43°24' E 004°60'0 0.0
2018-Apr-20 03:55N 43°24' E 004°60'0 0.0
2018-Apr-20 03:13N 43°24' E 004°60'0 0.0
2018-Apr-20 02:55N 43°24' E 004°60'0 0.0
2018-Apr-20 02:25N 43°24' E 004°60'0 0.0
2018-Apr-20 01:55N 43°24' E 004°60'0 0.0
2018-Apr-20 01:25N 43°24' E 004°60'0 0.0
2018-Apr-20 00:55N 43°24' E 004°60'0 0.0
2018-Apr-20 00:28N 43°24' E 004°60'0 0.0
2018-Apr-19 23:57N 43°24' E 004°60'0 0.0
2018-Apr-19 23:27N 43°24' E 004°60'0 0.0
2018-Apr-19 22:57N 43°24' E 004°60'0 0.0
2018-Apr-19 22:27N 43°24' E 004°60'0 0.0
2018-Apr-19 21:57N 43°24' E 004°60'0 0.0
2018-Apr-19 21:27N 43°24' E 004°60'0 0.0
2018-Apr-19 20:57N 43°24' E 004°60'0 0.0
2018-Apr-19 20:27N 43°24' E 004°60'0 0.0
2018-Apr-19 19:57N 43°24' E 004°60'0 0.0
2018-Apr-19 19:27N 43°24' E 004°60'0 0.0
2018-Apr-19 18:58N 43°24' E 004°60'0 0.0
2018-Apr-19 18:28N 43°24' E 004°60'0 0.0
2018-Apr-19 17:58N 43°24' E 004°60'0 0.0
2018-Apr-19 17:28N 43°24' E 004°60'0 0.0
2018-Apr-19 16:58N 43°24' E 004°60'0 0.0
2018-Apr-19 16:28N 43°24' E 004°60'0 0.0
2018-Apr-19 15:58N 43°24' E 004°60'0 0.0
2018-Apr-19 15:28N 43°24' E 004°60'0 0.0
2018-Apr-19 14:58N 43°24' E 004°60'0 0.0
2018-Apr-19 14:28N 43°24' E 004°60'0 0.0
2018-Apr-19 13:52N 43°24' E 004°60'0 0.0
2018-Apr-19 13:28N 43°24' E 004°60'0 0.0
2018-Apr-19 12:58N 43°24' E 004°60'0 0.0
2018-Apr-19 12:28N 43°24' E 004°60'0 0.0
2018-Apr-19 11:58N 43°24' E 004°60'0 0.0
2018-Apr-19 11:28N 43°24' E 004°60'0 0.0
2018-Apr-19 10:58N 43°24' E 004°60'0 0.0
2018-Apr-19 10:28N 43°24' E 004°60'0 0.0
2018-Apr-19 09:58N 43°24' E 004°60'0 0.0
2018-Apr-19 09:28N 43°24' E 004°60'0 0.0
2018-Apr-19 08:58N 43°24' E 004°60'0 0.0
2018-Apr-19 08:28N 43°24' E 004°60'0 0.0
2018-Apr-19 07:58N 43°24' E 004°60'0 0.0
2018-Apr-19 07:28N 43°24' E 004°60'0 0.0
2018-Apr-19 06:58N 43°24' E 004°60'0 0.0
2018-Apr-19 06:28N 43°24' E 004°60'0 0.0
2018-Apr-19 05:58N 43°24' E 004°60'0 0.0
2018-Apr-19 05:28N 43°24' E 004°60'0 0.0
2018-Apr-19 04:58N 43°24' E 004°60'0 0.0
2018-Apr-19 04:22N 43°24' E 004°60'0 0.0
2018-Apr-19 03:58N 43°24' E 004°60'0 0.0
2018-Apr-19 03:28N 43°24' E 004°60'0 0.0
2018-Apr-19 02:58N 43°24' E 004°60'0 0.0
2018-Apr-19 02:28N 43°24' E 004°60'0 0.0
2018-Apr-19 01:58N 43°24' E 004°60'0 0.0
2018-Apr-19 01:22N 43°24' E 004°60'0 0.0
2018-Apr-19 00:58N 43°24' E 004°60'0 0.0
2018-Apr-19 00:28N 43°24' E 004°60'0 0.0
2018-Apr-18 23:58N 43°24' E 004°60'0 0.0
2018-Apr-18 23:30N 43°24' E 004°60'0 0.0
2018-Apr-18 23:00N 43°24' E 004°60'0 0.0
2018-Apr-18 22:24N 43°24' E 004°60'0 0.0
2018-Apr-18 22:00N 43°24' E 004°60'0 0.0
2018-Apr-18 21:12N 43°24' E 004°60'0 0.0
2018-Apr-18 21:00N 43°24' E 004°60'0 0.0
2018-Apr-18 20:30N 43°24' E 004°60'0 0.0
2018-Apr-18 20:00N 43°24' E 004°60'0 0.0
2018-Apr-18 19:30N 43°24' E 004°60'0 0.0
2018-Apr-18 19:00N 43°24' E 004°60'0 0.0
2018-Apr-18 18:30N 43°24' E 004°60'0 0.0
2018-Apr-18 18:00N 43°24' E 004°60'0 0.0
2018-Apr-18 17:30N 43°24' E 004°60'0 0.0
2018-Apr-18 17:00N 43°24' E 004°60'0 0.0
2018-Apr-18 16:24N 43°24' E 004°60'0 0.0
2018-Apr-18 15:55N 43°24' E 004°60'0 0.0
2018-Apr-18 15:25N 43°24' E 004°60'0 0.0
2018-Apr-18 14:55N 43°24' E 004°60'0 0.0
2018-Apr-18 14:25N 43°24' E 004°60'0 0.0
2018-Apr-18 13:55N 43°24' E 004°60'0 0.0
2018-Apr-18 13:25N 43°24' E 004°60'2 3.8
2018-Apr-18 13:00N 43°23' E 004°59'1 1.9
2018-Apr-18 12:30N 43°22' E 004°59'0 0.0
2018-Apr-18 12:00N 43°22' E 004°59'0 0.0
2018-Apr-18 11:28N 43°22' E 004°59'0 0.0
2018-Apr-18 11:00N 43°22' E 004°59'0 0.0
2018-Apr-18 10:30N 43°22' E 004°59'0 0.0
2018-Apr-18 10:00N 43°22' E 004°59'0 0.0
2018-Apr-18 09:30N 43°22' E 004°59'0 0.0
2018-Apr-18 09:00N 43°22' E 004°59'0 0.0
2018-Apr-18 08:30N 43°22' E 004°59'0 0.0
2018-Apr-18 08:00N 43°22' E 004°59'0 0.1
2018-Apr-18 07:29N 43°22' E 004°59'0 0.0
2018-Apr-18 07:00N 43°22' E 004°59'2 3.0
2018-Apr-18 06:30N 43°23' E 004°59'1 1.8
2018-Apr-18 05:54N 43°24' E 004°60'0 0.0
2018-Apr-18 05:30N 43°24' E 004°60'0 0.0
2018-Apr-18 04:58N 43°24' E 004°60'0 0.0
2018-Apr-18 04:28N 43°24' E 004°60'0 0.0
2018-Apr-18 03:58N 43°24' E 004°60'0 0.0
2018-Apr-18 03:28N 43°24' E 004°60'0 0.0
2018-Apr-18 02:58N 43°24' E 004°60'0 0.0
2018-Apr-18 02:28N 43°24' E 004°60'0 0.0
2018-Apr-18 01:58N 43°24' E 004°60'0 0.0
2018-Apr-18 01:28N 43°24' E 004°60'0 0.0
2018-Apr-18 00:58N 43°24' E 004°60'0 0.0
2018-Apr-18 00:28N 43°24' E 004°60'0 0.0
2018-Apr-17 23:58N 43°24' E 004°60'0 0.0
2018-Apr-17 23:28N 43°24' E 004°60'0 0.0
2018-Apr-17 22:58N 43°24' E 004°60'0 0.0
2018-Apr-17 22:28N 43°24' E 004°60'0 0.0
2018-Apr-17 21:58N 43°24' E 004°60'0 0.0
2018-Apr-17 21:28N 43°24' E 004°60'0 0.0
2018-Apr-17 20:58N 43°24' E 004°60'0 0.0
2018-Apr-17 20:26N 43°24' E 004°60'0 0.0
2018-Apr-17 19:56N 43°24' E 004°60'0 0.0
2018-Apr-17 19:26N 43°24' E 004°60'0 0.0
2018-Apr-17 18:56N 43°24' E 004°60'2 4.6
2018-Apr-17 18:31N 43°24' E 004°57'4 7.8
2018-Apr-17 18:00N 43°24' E 004°52'2 3.8
2018-Apr-17 17:30N 43°26' E 004°50'0 0.0
2018-Apr-17 16:58N 43°26' E 004°50'0 0.0
2018-Apr-17 16:25N 43°26' E 004°50'0 0.0
2018-Apr-17 15:55N 43°26' E 004°50'0 0.0
2018-Apr-17 15:30N 43°26' E 004°50'0 0.0
2018-Apr-17 14:55N 43°26' E 004°50'0 0.0
2018-Apr-17 14:26N 43°26' E 004°50'0 0.0
2018-Apr-17 14:00N 43°26' E 004°50'0 0.0
2018-Apr-17 13:29N 43°26' E 004°50'0 0.0
2018-Apr-17 12:56N 43°26' E 004°50'0 0.0
2018-Apr-17 12:30N 43°26' E 004°50'0 0.0
2018-Apr-17 11:53N 43°26' E 004°50'0 0.0
2018-Apr-17 11:30N 43°26' E 004°50'0 0.3
2018-Apr-17 10:54N 43°25' E 004°50'3 7.3
2018-Apr-17 10:29N 43°24' E 004°54'3 6.1
2018-Apr-17 10:00N 43°23' E 004°58'0 0.0
2018-Apr-17 09:30N 43°23' E 004°58'0 0.0
2018-Apr-17 09:00N 43°23' E 004°58'0 0.0
2018-Apr-17 08:30N 43°23' E 004°58'0 0.0
2018-Apr-17 08:00N 43°23' E 004°58'0 0.0
2018-Apr-17 07:30N 43°23' E 004°58'0 0.0
2018-Apr-17 07:00N 43°23' E 004°58'0 0.0
2018-Apr-17 06:30N 43°23' E 004°58'2 3.6
2018-Apr-17 06:01N 43°24' E 004°60'0 0.0
2018-Apr-17 05:25N 43°24' E 004°60'0 0.0
2018-Apr-17 04:55N 43°24' E 004°60'0 0.0
2018-Apr-17 04:25N 43°24' E 004°60'0 0.0
2018-Apr-17 03:55N 43°24' E 004°60'0 0.0
2018-Apr-17 03:25N 43°24' E 004°60'0 0.0
2018-Apr-17 02:55N 43°24' E 004°60'0 0.0
2018-Apr-17 02:25N 43°24' E 004°60'0 0.0
2018-Apr-17 01:55N 43°24' E 004°60'0 0.0
2018-Apr-17 01:25N 43°24' E 004°60'0 0.0
2018-Apr-17 00:58N 43°24' E 004°60'0 0.0
2018-Apr-17 00:28N 43°24' E 004°60'0 0.0
2018-Apr-16 23:58N 43°24' E 004°60'0 0.0
2018-Apr-16 23:30N 43°24' E 004°60'0 0.0
2018-Apr-16 23:00N 43°24' E 004°60'0 0.0
2018-Apr-16 22:30N 43°24' E 004°60'0 0.0
2018-Apr-16 22:00N 43°24' E 004°60'0 0.0
2018-Apr-16 21:30N 43°24' E 004°60'0 0.0
2018-Apr-16 21:00N 43°24' E 004°60'0 0.0
2018-Apr-16 20:30N 43°24' E 004°60'0 0.0
2018-Apr-16 20:00N 43°24' E 004°60'0 0.0
2018-Apr-16 19:30N 43°24' E 004°60'0 0.0
2018-Apr-16 19:00N 43°24' E 004°60'0 0.0
2018-Apr-16 18:30N 43°24' E 004°60'0 0.4
2018-Apr-16 18:01N 43°24' E 004°60'1 2.3
2018-Apr-16 17:31N 43°24' E 004°58'0 0.0
2018-Apr-16 17:01N 43°24' E 004°58'0 0.1
2018-Apr-16 16:30N 43°24' E 004°58'0 0.0
2018-Apr-16 16:00N 43°24' E 004°58'0 0.0
2018-Apr-16 15:31N 43°24' E 004°58'0 0.0
2018-Apr-16 15:00N 43°24' E 004°58'0 0.3
2018-Apr-16 14:31N 43°24' E 004°58'1 2.9
2018-Apr-16 14:00N 43°24' E 004°60'0 0.0
2018-Apr-16 13:30N 43°24' E 004°60'0 0.0
2018-Apr-16 12:58N 43°24' E 004°60'0 0.0
2018-Apr-16 12:22N 43°24' E 004°60'1 2.7
2018-Apr-16 12:00N 43°24' E 004°59'2 4.7
2018-Apr-16 11:30N 43°24' E 004°56'0 0.0
2018-Apr-16 11:00N 43°24' E 004°56'2 3.6
2018-Apr-16 10:30N 43°24' E 004°53'0 0.0
2018-Apr-16 10:00N 43°24' E 004°53'0 0.0
2018-Apr-16 09:29N 43°24' E 004°53'0 0.0
2018-Apr-16 08:59N 43°24' E 004°53'0 0.0
2018-Apr-16 08:29N 43°24' E 004°53'0 0.0
2018-Apr-16 08:00N 43°24' E 004°53'0 0.0
2018-Apr-16 07:30N 43°24' E 004°53'0 0.0
2018-Apr-16 06:38N 43°24' E 004°53'0 0.0
2018-Apr-16 06:25N 43°24' E 004°53'0 0.0
2018-Apr-16 05:59N 43°24' E 004°53'0 0.0
2018-Apr-16 05:26N 43°24' E 004°53'0 0.1
2018-Apr-16 04:56N 43°24' E 004°53'3 7.4
2018-Apr-16 04:30N 43°24' E 004°58'2 3.4
2018-Apr-16 04:00N 43°24' E 004°60'0 0.0
2018-Apr-16 03:28N 43°24' E 004°60'0 0.0
2018-Apr-16 02:58N 43°24' E 004°60'0 0.0
2018-Apr-16 02:28N 43°24' E 004°60'0 0.0
2018-Apr-16 01:58N 43°24' E 004°60'0 0.0
2018-Apr-16 01:28N 43°24' E 004°60'0 0.0
2018-Apr-16 00:58N 43°24' E 004°60'0 0.0
2018-Apr-16 00:28N 43°24' E 004°60'0 0.0
2018-Apr-15 23:58N 43°24' E 004°60'0 0.0
2018-Apr-15 23:28N 43°24' E 004°60'0 0.0
2018-Apr-15 22:58N 43°24' E 004°60'0 0.0
2018-Apr-15 22:28N 43°24' E 004°60'0 0.0
2018-Apr-15 21:58N 43°24' E 004°60'0 0.0
2018-Apr-15 21:28N 43°24' E 004°60'0 0.0
2018-Apr-15 20:58N 43°24' E 004°60'0 0.0
2018-Apr-15 20:28N 43°24' E 004°60'0 0.0
2018-Apr-15 19:58N 43°24' E 004°60'0 0.0
2018-Apr-15 19:28N 43°24' E 004°60'0 0.0
2018-Apr-15 18:58N 43°24' E 004°60'0 0.0
2018-Apr-15 18:28N 43°24' E 004°60'0 0.0
2018-Apr-15 17:58N 43°24' E 004°60'0 0.0
2018-Apr-15 17:28N 43°24' E 004°60'0 0.0
2018-Apr-15 16:58N 43°24' E 004°60'0 0.0
2018-Apr-15 16:28N 43°24' E 004°60'0 0.0
2018-Apr-15 15:58N 43°24' E 004°60'0 0.0
2018-Apr-15 15:28N 43°24' E 004°60'0 0.0
2018-Apr-15 14:58N 43°24' E 004°60'0 0.0
2018-Apr-15 14:28N 43°24' E 004°60'0 0.0
2018-Apr-15 13:58N 43°24' E 004°60'0 0.0
2018-Apr-15 13:28N 43°24' E 004°60'0 0.0
2018-Apr-15 12:58N 43°24' E 004°60'0 0.0
2018-Apr-15 12:28N 43°24' E 004°60'0 0.0
2018-Apr-15 11:58N 43°24' E 004°60'0 0.0
2018-Apr-15 11:28N 43°24' E 004°60'0 0.0
2018-Apr-15 10:58N 43°24' E 004°60'0 0.0
2018-Apr-15 10:28N 43°24' E 004°60'0 0.0
2018-Apr-15 09:56N 43°24' E 004°60'0 0.0
2018-Apr-15 09:20N 43°24' E 004°60'0 0.0
2018-Apr-15 08:56N 43°24' E 004°60'0 0.0
2018-Apr-15 08:26N 43°24' E 004°60'0 0.0
2018-Apr-15 07:56N 43°24' E 004°60'0 0.0
2018-Apr-15 07:26N 43°24' E 004°60'0 0.0
2018-Apr-15 06:55N 43°24' E 004°60'0 0.0
2018-Apr-15 06:25N 43°24' E 004°60'0 0.0
2018-Apr-15 05:55N 43°24' E 004°60'0 0.0
2018-Apr-15 05:01N 43°24' E 004°60'0 0.0
2018-Apr-15 04:55N 43°24' E 004°60'0 0.0
2018-Apr-15 04:17N 43°24' E 004°60'0 0.0
2018-Apr-15 03:53N 43°24' E 004°60'0 0.0
2018-Apr-15 03:23N 43°24' E 004°60'0 0.0
2018-Apr-15 02:59N 43°24' E 004°60'0 0.0
2018-Apr-15 02:29N 43°24' E 004°60'0 0.0
2018-Apr-15 01:59N 43°24' E 004°60'0 0.0
2018-Apr-15 01:29N 43°24' E 004°60'0 0.0
2018-Apr-15 00:59N 43°24' E 004°60'0 0.0
2018-Apr-15 00:27N 43°24' E 004°60'0 0.0
2018-Apr-14 23:57N 43°24' E 004°60'0 0.0
2018-Apr-14 23:24N 43°24' E 004°60'0 0.0
2018-Apr-14 23:00N 43°24' E 004°60'0 0.0
2018-Apr-14 22:30N 43°24' E 004°60'0 0.0
2018-Apr-14 22:00N 43°24' E 004°60'0 0.0
2018-Apr-14 21:30N 43°24' E 004°60'0 0.0
2018-Apr-14 21:00N 43°24' E 004°60'0 0.0
2018-Apr-14 20:30N 43°24' E 004°60'0 0.0
2018-Apr-14 19:56N 43°24' E 004°60'0 0.0
2018-Apr-14 19:26N 43°24' E 004°60'0 0.0
2018-Apr-14 18:56N 43°24' E 004°60'0 0.0
2018-Apr-14 18:20N 43°24' E 004°60'0 0.0
2018-Apr-14 17:56N 43°24' E 004°60'0 0.0
2018-Apr-14 17:26N 43°24' E 004°60'0 0.0
2018-Apr-14 16:56N 43°24' E 004°60'0 0.0
2018-Apr-14 16:30N 43°24' E 004°60'0 0.0
2018-Apr-14 16:00N 43°24' E 004°60'0 0.0
2018-Apr-14 15:30N 43°24' E 004°60'0 0.0
2018-Apr-14 14:54N 43°24' E 004°60'0 0.0
2018-Apr-14 14:30N 43°24' E 004°60'0 0.0
2018-Apr-14 14:00N 43°24' E 004°60'0 0.9
2018-Apr-14 13:30N 43°24' E 004°60'0 0.0
2018-Apr-14 13:00N 43°24' E 004°60'0 0.0
2018-Apr-14 12:30N 43°24' E 004°60'0 0.0
2018-Apr-14 12:00N 43°24' E 004°60'0 0.0
2018-Apr-14 11:30N 43°24' E 004°60'0 0.0
2018-Apr-14 11:00N 43°24' E 004°60'0 0.0
2018-Apr-14 10:29N 43°24' E 004°60'0 0.0
2018-Apr-14 10:00N 43°24' E 004°60'0 0.9
2018-Apr-14 09:30N 43°24' E 004°60'0 0.0
2018-Apr-14 09:00N 43°24' E 004°60'0 0.0
2018-Apr-14 08:30N 43°24' E 004°60'0 0.0
2018-Apr-14 08:00N 43°24' E 004°60'0 0.0
2018-Apr-14 07:30N 43°24' E 004°60'0 0.0
2018-Apr-14 07:00N 43°24' E 004°60'0 0.0
2018-Apr-14 06:30N 43°24' E 004°60'0 0.0
2018-Apr-14 06:00N 43°24' E 004°60'0 0.0
2018-Apr-14 05:30N 43°24' E 004°60'0 0.0
2018-Apr-14 04:48N 43°24' E 004°60'0 0.0
2018-Apr-14 04:30N 43°24' E 004°60'0 0.0
2018-Apr-14 04:00N 43°24' E 004°60'0 0.0
2018-Apr-14 03:18N 43°24' E 004°60'0 0.0
2018-Apr-14 03:00N 43°24' E 004°60'0 0.0
2018-Apr-14 02:30N 43°24' E 004°60'0 0.0
2018-Apr-14 01:54N 43°24' E 004°60'0 0.0
2018-Apr-14 01:30N 43°24' E 004°60'0 0.0
2018-Apr-14 01:00N 43°24' E 004°60'0 0.0
2018-Apr-14 00:30N 43°24' E 004°60'0 0.0
2018-Apr-14 00:00N 43°24' E 004°60'0 0.0
2018-Apr-13 23:25N 43°24' E 004°60'0 0.0
2018-Apr-13 22:55N 43°24' E 004°60'0 0.0
2018-Apr-13 22:25N 43°24' E 004°60'0 0.0
2018-Apr-13 21:55N 43°24' E 004°60'0 0.0
2018-Apr-13 21:25N 43°24' E 004°60'0 0.0
2018-Apr-13 20:55N 43°24' E 004°60'0 0.0
2018-Apr-13 20:25N 43°24' E 004°60'0 0.0
2018-Apr-13 19:55N 43°24' E 004°60'0 0.0
2018-Apr-13 19:25N 43°24' E 004°60'0 0.0
2018-Apr-13 18:49N 43°24' E 004°60'0 0.0
2018-Apr-13 18:25N 43°24' E 004°60'0 0.0
2018-Apr-13 17:55N 43°24' E 004°60'0 0.0
2018-Apr-13 17:25N 43°24' E 004°60'0 0.0
2018-Apr-13 16:55N 43°24' E 004°60'0 0.0
2018-Apr-13 16:25N 43°24' E 004°60'0 0.0
2018-Apr-13 15:55N 43°24' E 004°60'0 0.0
2018-Apr-13 15:25N 43°24' E 004°60'0 0.0
2018-Apr-13 14:43N 43°24' E 004°60'3 4.5
2018-Apr-13 14:00N 43°24' E 004°56'2 2.3
2018-Apr-13 13:00N 43°26' E 004°54'0 0.0
2018-Apr-13 12:30N 43°26' E 004°54'0 0.0
2018-Apr-13 12:00N 43°26' E 004°54'0 0.4
2018-Apr-13 11:30N 43°26' E 004°53'3 6.5
2018-Apr-13 11:00N 43°24' E 004°57'2 4.5
2018-Apr-13 10:30N 43°24' E 004°60'0 0.0
2018-Apr-13 09:59N 43°24' E 004°60'0 0.0
2018-Apr-13 09:29N 43°24' E 004°60'0 0.0
2018-Apr-13 08:59N 43°24' E 004°60'0 0.0
2018-Apr-13 08:29N 43°24' E 004°60'0 0.0
2018-Apr-13 07:59N 43°24' E 004°60'0 0.0
2018-Apr-13 07:29N 43°24' E 004°60'0 0.0
2018-Apr-13 06:59N 43°24' E 004°60'0 0.0
2018-Apr-13 06:29N 43°24' E 004°60'0 0.0
2018-Apr-13 05:59N 43°24' E 004°60'0 0.0
2018-Apr-13 05:29N 43°24' E 004°60'0 0.0
2018-Apr-13 04:59N 43°24' E 004°60'0 0.0
2018-Apr-13 04:23N 43°24' E 004°60'0 0.0
2018-Apr-13 03:59N 43°24' E 004°60'0 0.0
2018-Apr-13 03:29N 43°24' E 004°60'0 0.0
2018-Apr-13 02:59N 43°24' E 004°60'0 0.0
2018-Apr-13 02:29N 43°24' E 004°60'0 0.0
2018-Apr-13 01:59N 43°24' E 004°60'0 0.0
2018-Apr-13 01:29N 43°24' E 004°60'0 0.0
2018-Apr-13 00:59N 43°24' E 004°60'0 0.0
2018-Apr-13 00:29N 43°24' E 004°60'0 0.0
2018-Apr-12 23:59N 43°24' E 004°60'0 0.0
2018-Apr-12 23:29N 43°24' E 004°60'0 0.0
2018-Apr-12 22:59N 43°24' E 004°60'0 0.0
2018-Apr-12 22:29N 43°24' E 004°60'0 0.0
2018-Apr-12 21:59N 43°24' E 004°60'0 0.0
2018-Apr-12 21:29N 43°24' E 004°60'0 0.0
2018-Apr-12 20:59N 43°24' E 004°60'0 0.0
2018-Apr-12 20:29N 43°24' E 004°60'0 0.0
2018-Apr-12 19:59N 43°24' E 004°60'0 0.0
2018-Apr-12 19:29N 43°24' E 004°60'0 0.0
2018-Apr-12 18:59N 43°24' E 004°60'0 0.0
2018-Apr-12 18:29N 43°24' E 004°60'0 0.0
2018-Apr-12 17:59N 43°24' E 004°60'0 0.0
2018-Apr-12 17:29N 43°24' E 004°60'0 0.0
2018-Apr-12 16:59N 43°24' E 004°60'0 0.0
2018-Apr-12 16:29N 43°24' E 004°60'1 1.8
2018-Apr-12 16:00N 43°24' E 004°59'4 7.2
2018-Apr-12 15:31N 43°24' E 004°54'2 0.2
2018-Apr-12 06:47N 43°26' E 004°52'0 0.1
2018-Apr-12 06:20N 43°26' E 004°52'2 6.3
2018-Apr-12 05:59N 43°24' E 004°55'3 6.7
2018-Apr-12 05:30N 43°24' E 004°59'1 1.8
2018-Apr-12 04:59N 43°24' E 004°60'0 0.0
2018-Apr-12 04:28N 43°24' E 004°60'0 0.0
2018-Apr-12 03:58N 43°24' E 004°60'0 0.0
2018-Apr-12 03:29N 43°24' E 004°60'0 0.0
2018-Apr-12 02:58N 43°24' E 004°60'0 0.0
2018-Apr-12 02:28N 43°24' E 004°60'0 0.0
2018-Apr-12 01:58N 43°24' E 004°60'0 0.0
2018-Apr-12 01:28N 43°24' E 004°60'0 0.0
2018-Apr-12 00:59N 43°24' E 004°60'0 0.0
2018-Apr-12 00:29N 43°24' E 004°60'0 0.0
2018-Apr-12 00:00N 43°24' E 004°60'0 0.0
2018-Apr-11 23:30N 43°24' E 004°60'0 0.0
2018-Apr-11 22:55N 43°24' E 004°60'0 0.0
2018-Apr-11 22:25N 43°24' E 004°60'0 0.0
2018-Apr-11 21:55N 43°24' E 004°60'0 0.0
2018-Apr-11 21:25N 43°24' E 004°60'0 0.0
2018-Apr-11 20:55N 43°24' E 004°60'0 0.0
2018-Apr-11 20:25N 43°24' E 004°60'0 0.0
2018-Apr-11 19:49N 43°24' E 004°60'0 0.0
2018-Apr-11 19:25N 43°24' E 004°60'0 0.0
2018-Apr-11 18:55N 43°24' E 004°60'0 0.0
2018-Apr-11 18:19N 43°24' E 004°60'0 0.0
2018-Apr-11 17:55N 43°24' E 004°60'0 0.0
2018-Apr-11 17:25N 43°24' E 004°60'0 0.0
2018-Apr-11 16:55N 43°24' E 004°60'0 0.0
2018-Apr-11 16:25N 43°24' E 004°60'0 0.0
2018-Apr-11 15:55N 43°24' E 004°60'0 0.0
2018-Apr-11 15:25N 43°24' E 004°60'0 0.0
2018-Apr-11 14:55N 43°24' E 004°60'0 0.0
2018-Apr-11 14:25N 43°24' E 004°60'0 0.0
2018-Apr-11 13:55N 43°24' E 004°60'0 0.0
2018-Apr-11 13:19N 43°24' E 004°60'0 0.0
2018-Apr-11 12:55N 43°24' E 004°60'0 0.0
2018-Apr-11 12:25N 43°24' E 004°60'0 0.0
2018-Apr-11 11:55N 43°24' E 004°60'0 0.0
2018-Apr-11 11:25N 43°24' E 004°60'0 0.0
2018-Apr-11 10:55N 43°24' E 004°60'0 0.0
2018-Apr-11 10:25N 43°24' E 004°60'0 0.0
2018-Apr-11 09:55N 43°24' E 004°60'0 0.0
2018-Apr-11 09:19N 43°24' E 004°60'0 0.0
2018-Apr-11 08:55N 43°24' E 004°60'0 0.0
2018-Apr-11 08:19N 43°24' E 004°60'0 0.0
2018-Apr-11 07:55N 43°24' E 004°60'0 0.0
2018-Apr-11 07:25N 43°24' E 004°60'0 0.0
2018-Apr-11 06:43N 43°24' E 004°60'0 0.0
2018-Apr-11 06:25N 43°24' E 004°60'0 0.0
2018-Apr-11 05:55N 43°24' E 004°60'0 0.0
2018-Apr-11 05:13N 43°24' E 004°60'0 0.0
2018-Apr-11 04:55N 43°24' E 004°60'0 0.0
2018-Apr-11 04:25N 43°24' E 004°60'0 0.0
2018-Apr-11 03:55N 43°24' E 004°60'0 0.0
2018-Apr-11 03:25N 43°24' E 004°60'0 0.0
2018-Apr-11 02:55N 43°24' E 004°60'0 0.0
2018-Apr-11 02:25N 43°24' E 004°60'0 0.0
2018-Apr-11 01:55N 43°24' E 004°60'0 0.0
2018-Apr-11 01:21N 43°24' E 004°60'0 0.0
2018-Apr-11 00:55N 43°24' E 004°60'0 0.0
2018-Apr-11 00:25N 43°24' E 004°60'0 0.0
2018-Apr-10 23:55N 43°24' E 004°60'0 0.0
2018-Apr-10 23:25N 43°24' E 004°60'0 0.0
2018-Apr-10 22:55N 43°24' E 004°60'0 0.0
2018-Apr-10 22:25N 43°24' E 004°60'0 0.0
2018-Apr-10 21:55N 43°24' E 004°60'0 0.0
2018-Apr-10 21:25N 43°24' E 004°60'0 0.0
2018-Apr-10 20:59N 43°24' E 004°60'0 0.0
2018-Apr-10 20:23N 43°24' E 004°60'0 0.0
2018-Apr-10 19:59N 43°24' E 004°60'0 0.0
2018-Apr-10 19:29N 43°24' E 004°60'0 0.0
2018-Apr-10 18:59N 43°24' E 004°60'0 0.0
2018-Apr-10 18:29N 43°24' E 004°60'  

Dump ship's entire track history